sensor_id;sensor_type;location;lat;lon;timestamp;temperature;humidity
7658;DHT22;8462;53.156;8.220;2023-07-22T00:01:09;16.10;99.90
7658;DHT22;8462;53.156;8.220;2023-07-22T00:03:36;16.00;99.90
7658;DHT22;8462;53.156;8.220;2023-07-22T00:06:05;16.00;99.90
7658;DHT22;8462;53.156;8.220;2023-07-22T00:08:33;16.00;99.90
7658;DHT22;8462;53.156;8.220;2023-07-22T00:11:00;16.00;99.90
7658;DHT22;8462;53.156;8.220;2023-07-22T00:13:27;15.90;99.90
7658;DHT22;8462;53.156;8.220;2023-07-22T00:15:54;15.90;99.90
7658;DHT22;8462;53.156;8.220;2023-07-22T00:18:22;15.90;99.90
7658;DHT22;8462;53.156;8.220;2023-07-22T00:20:49;15.90;99.90
7658;DHT22;8462;53.156;8.220;2023-07-22T00:23:18;15.90;99.90
7658;DHT22;8462;53.156;8.220;2023-07-22T00:25:45;15.80;99.90
7658;DHT22;8462;53.156;8.220;2023-07-22T00:28:12;15.80;99.90
7658;DHT22;8462;53.156;8.220;2023-07-22T00:30:39;15.80;99.90
7658;DHT22;8462;53.156;8.220;2023-07-22T00:33:07;15.80;99.90
7658;DHT22;8462;53.156;8.220;2023-07-22T00:35:34;15.80;99.90
7658;DHT22;8462;53.156;8.220;2023-07-22T00:38:01;15.80;99.90
7658;DHT22;8462;53.156;8.220;2023-07-22T00:40:30;15.80;99.90
7658;DHT22;8462;53.156;8.220;2023-07-22T00:42:58;15.80;99.90
7658;DHT22;8462;53.156;8.220;2023-07-22T00:45:25;15.70;99.90
7658;DHT22;8462;53.156;8.220;2023-07-22T00:47:52;15.70;99.90
7658;DHT22;8462;53.156;8.220;2023-07-22T00:50:19;15.70;99.90
7658;DHT22;8462;53.156;8.220;2023-07-22T00:52:47;15.70;99.90
7658;DHT22;8462;53.156;8.220;2023-07-22T00:55:14;15.60;99.90
7658;DHT22;8462;53.156;8.220;2023-07-22T00:57:42;15.60;99.90
7658;DHT22;8462;53.156;8.220;2023-07-22T01:00:10;15.60;99.90
7658;DHT22;8462;53.156;8.220;2023-07-22T01:02:38;15.60;99.90
7658;DHT22;8462;53.156;8.220;2023-07-22T01:05:05;15.60;99.90
7658;DHT22;8462;53.156;8.220;2023-07-22T01:07:32;15.60;99.90
7658;DHT22;8462;53.156;8.220;2023-07-22T01:09:59;15.60;99.90
7658;DHT22;8462;53.156;8.220;2023-07-22T01:12:26;15.60;99.90
7658;DHT22;8462;53.156;8.220;2023-07-22T01:14:54;15.60;99.90
7658;DHT22;8462;53.156;8.220;2023-07-22T01:17:22;15.60;99.90
7658;DHT22;8462;53.156;8.220;2023-07-22T01:19:49;15.60;99.90
7658;DHT22;8462;53.156;8.220;2023-07-22T01:22:16;15.50;99.90
7658;DHT22;8462;53.156;8.220;2023-07-22T01:24:45;15.50;99.90
7658;DHT22;8462;53.156;8.220;2023-07-22T01:27:12;15.50;99.90
7658;DHT22;8462;53.156;8.220;2023-07-22T01:29:40;15.50;99.90
7658;DHT22;8462;53.156;8.220;2023-07-22T01:32:07;15.50;99.90
7658;DHT22;8462;53.156;8.220;2023-07-22T01:34:35;15.50;99.90
7658;DHT22;8462;53.156;8.220;2023-07-22T01:37:02;15.50;99.90
7658;DHT22;8462;53.156;8.220;2023-07-22T01:39:30;15.40;99.90
7658;DHT22;8462;53.156;8.220;2023-07-22T01:41:58;15.40;99.90
7658;DHT22;8462;53.156;8.220;2023-07-22T01:44:25;15.40;99.90
7658;DHT22;8462;53.156;8.220;2023-07-22T01:46:52;15.40;99.90
7658;DHT22;8462;53.156;8.220;2023-07-22T01:49:20;15.30;99.90
7658;DHT22;8462;53.156;8.220;2023-07-22T01:51:47;15.30;99.90
7658;DHT22;8462;53.156;8.220;2023-07-22T01:54:14;15.30;99.90
7658;DHT22;8462;53.156;8.220;2023-07-22T01:56:42;15.30;99.90
7658;DHT22;8462;53.156;8.220;2023-07-22T01:59:11;15.30;99.90
7658;DHT22;8462;53.156;8.220;2023-07-22T02:01:38;15.30;99.90
7658;DHT22;8462;53.156;8.220;2023-07-22T02:04:05;15.20;99.90
7658;DHT22;8462;53.156;8.220;2023-07-22T02:06:33;15.20;99.90
7658;DHT22;8462;53.156;8.220;2023-07-22T02:09:00;15.20;99.90
7658;DHT22;8462;53.156;8.220;2023-07-22T02:11:34;15.20;99.90
7658;DHT22;8462;53.156;8.220;2023-07-22T02:14:01;15.20;99.90
7658;DHT22;8462;53.156;8.220;2023-07-22T02:16:31;15.20;99.90
7658;DHT22;8462;53.156;8.220;2023-07-22T02:18:58;15.20;99.90
7658;DHT22;8462;53.156;8.220;2023-07-22T02:21:25;15.20;99.90
7658;DHT22;8462;53.156;8.220;2023-07-22T02:23:53;15.10;99.90
7658;DHT22;8462;53.156;8.220;2023-07-22T02:26:21;15.10;99.90
7658;DHT22;8462;53.156;8.220;2023-07-22T02:28:49;15.10;99.90
7658;DHT22;8462;53.156;8.220;2023-07-22T02:31:16;15.10;99.90
7658;DHT22;8462;53.156;8.220;2023-07-22T02:33:45;15.10;99.90
7658;DHT22;8462;53.156;8.220;2023-07-22T02:36:12;15.10;99.90
7658;DHT22;8462;53.156;8.220;2023-07-22T02:38:40;15.00;99.90
7658;DHT22;8462;53.156;8.220;2023-07-22T02:41:07;15.00;99.90
7658;DHT22;8462;53.156;8.220;2023-07-22T02:43:35;15.00;99.90
7658;DHT22;8462;53.156;8.220;2023-07-22T02:46:03;15.00;99.90
7658;DHT22;8462;53.156;8.220;2023-07-22T02:48:31;14.90;99.90
7658;DHT22;8462;53.156;8.220;2023-07-22T02:51:04;14.90;99.90
7658;DHT22;8462;53.156;8.220;2023-07-22T02:53:31;14.90;99.90
7658;DHT22;8462;53.156;8.220;2023-07-22T02:55:59;14.90;99.90
7658;DHT22;8462;53.156;8.220;2023-07-22T02:58:26;14.80;99.90
7658;DHT22;8462;53.156;8.220;2023-07-22T03:00:53;14.80;99.90
7658;DHT22;8462;53.156;8.220;2023-07-22T03:03:20;14.80;99.90
7658;DHT22;8462;53.156;8.220;2023-07-22T03:05:47;14.80;99.90
7658;DHT22;8462;53.156;8.220;2023-07-22T03:08:17;14.80;99.90
7658;DHT22;8462;53.156;8.220;2023-07-22T03:10:44;14.80;99.90
7658;DHT22;8462;53.156;8.220;2023-07-22T03:13:14;14.80;99.90
7658;DHT22;8462;53.156;8.220;2023-07-22T03:15:41;14.80;99.90
7658;DHT22;8462;53.156;8.220;2023-07-22T03:18:08;14.80;99.90
7658;DHT22;8462;53.156;8.220;2023-07-22T03:20:36;14.80;99.90
7658;DHT22;8462;53.156;8.220;2023-07-22T03:23:03;14.80;99.90
7658;DHT22;8462;53.156;8.220;2023-07-22T03:25:33;14.80;99.90
7658;DHT22;8462;53.156;8.220;2023-07-22T03:28:03;14.80;99.90
7658;DHT22;8462;53.156;8.220;2023-07-22T03:30:30;14.80;99.90
7658;DHT22;8462;53.156;8.220;2023-07-22T03:32:57;14.80;99.90
7658;DHT22;8462;53.156;8.220;2023-07-22T03:35:25;14.80;99.90
7658;DHT22;8462;53.156;8.220;2023-07-22T03:37:51;14.90;99.90
7658;DHT22;8462;53.156;8.220;2023-07-22T03:40:18;14.80;99.90
7658;DHT22;8462;53.156;8.220;2023-07-22T03:42:47;14.90;99.90
7658;DHT22;8462;53.156;8.220;2023-07-22T03:45:15;14.80;99.90
7658;DHT22;8462;53.156;8.220;2023-07-22T03:47:44;14.80;99.90
7658;DHT22;8462;53.156;8.220;2023-07-22T03:50:11;14.80;99.90
7658;DHT22;8462;53.156;8.220;2023-07-22T03:52:38;14.80;99.90
7658;DHT22;8462;53.156;8.220;2023-07-22T03:55:05;14.80;99.90
7658;DHT22;8462;53.156;8.220;2023-07-22T03:57:32;14.80;99.90
7658;DHT22;8462;53.156;8.220;2023-07-22T04:00:01;14.90;99.90
7658;DHT22;8462;53.156;8.220;2023-07-22T04:02:38;14.90;99.90
7658;DHT22;8462;53.156;8.220;2023-07-22T04:05:05;15.00;99.90
7658;DHT22;8462;53.156;8.220;2023-07-22T04:07:32;15.00;99.90
7658;DHT22;8462;53.156;8.220;2023-07-22T04:09:59;15.00;99.90
7658;DHT22;8462;53.156;8.220;2023-07-22T04:12:26;15.10;99.90
7658;DHT22;8462;53.156;8.220;2023-07-22T04:14:54;15.10;99.90
7658;DHT22;8462;53.156;8.220;2023-07-22T04:17:22;15.20;99.90
7658;DHT22;8462;53.156;8.220;2023-07-22T04:19:51;15.30;99.90
7658;DHT22;8462;53.156;8.220;2023-07-22T04:22:19;15.30;99.90
7658;DHT22;8462;53.156;8.220;2023-07-22T04:24:46;15.40;99.90
7658;DHT22;8462;53.156;8.220;2023-07-22T04:27:15;15.40;99.90
7658;DHT22;8462;53.156;8.220;2023-07-22T04:29:42;15.50;99.90
7658;DHT22;8462;53.156;8.220;2023-07-22T04:32:09;15.60;99.90
7658;DHT22;8462;53.156;8.220;2023-07-22T04:34:37;15.60;99.90
7658;DHT22;8462;53.156;8.220;2023-07-22T04:37:05;15.70;99.90
7658;DHT22;8462;53.156;8.220;2023-07-22T04:39:32;15.80;99.90
7658;DHT22;8462;53.156;8.220;2023-07-22T04:41:59;15.90;99.90
7658;DHT22;8462;53.156;8.220;2023-07-22T04:44:27;15.90;99.90
7658;DHT22;8462;53.156;8.220;2023-07-22T04:46:54;16.00;99.90
7658;DHT22;8462;53.156;8.220;2023-07-22T04:49:21;16.10;99.90
7658;DHT22;8462;53.156;8.220;2023-07-22T04:51:50;16.20;99.90
7658;DHT22;8462;53.156;8.220;2023-07-22T04:54:17;16.30;99.80
7658;DHT22;8462;53.156;8.220;2023-07-22T04:56:44;16.50;99.40
7658;DHT22;8462;53.156;8.220;2023-07-22T04:59:11;16.60;99.30
7658;DHT22;8462;53.156;8.220;2023-07-22T05:01:39;16.70;98.80
7658;DHT22;8462;53.156;8.220;2023-07-22T05:04:07;16.90;98.50
7658;DHT22;8462;53.156;8.220;2023-07-22T05:06:34;17.10;98.50
7658;DHT22;8462;53.156;8.220;2023-07-22T05:09:03;17.40;98.30
7658;DHT22;8462;53.156;8.220;2023-07-22T05:11:30;17.70;97.10
7658;DHT22;8462;53.156;8.220;2023-07-22T05:13:57;18.00;97.00
7658;DHT22;8462;53.156;8.220;2023-07-22T05:16:24;18.70;96.50
7658;DHT22;8462;53.156;8.220;2023-07-22T05:18:51;19.90;93.60
7658;DHT22;8462;53.156;8.220;2023-07-22T05:21:18;20.90;91.90
7658;DHT22;8462;53.156;8.220;2023-07-22T05:23:44;21.90;90.60
7658;DHT22;8462;53.156;8.220;2023-07-22T05:26:13;22.60;86.30
7658;DHT22;8462;53.156;8.220;2023-07-22T05:28:41;23.00;84.80
7658;DHT22;8462;53.156;8.220;2023-07-22T05:31:07;23.30;82.60
7658;DHT22;8462;53.156;8.220;2023-07-22T05:33:34;23.60;81.70
7658;DHT22;8462;53.156;8.220;2023-07-22T05:36:03;24.00;81.10
7658;DHT22;8462;53.156;8.220;2023-07-22T05:38:30;24.70;78.40
7658;DHT22;8462;53.156;8.220;2023-07-22T05:40:57;25.00;76.60
7658;DHT22;8462;53.156;8.220;2023-07-22T05:43:26;25.00;73.70
7658;DHT22;8462;53.156;8.220;2023-07-22T05:45:53;25.00;75.90
7658;DHT22;8462;53.156;8.220;2023-07-22T05:48:20;25.00;74.00
7658;DHT22;8462;53.156;8.220;2023-07-22T05:50:47;24.80;74.50
7658;DHT22;8462;53.156;8.220;2023-07-22T05:53:14;24.50;74.10
7658;DHT22;8462;53.156;8.220;2023-07-22T05:55:41;24.00;75.10
7658;DHT22;8462;53.156;8.220;2023-07-22T05:58:15;23.60;77.80
7658;DHT22;8462;53.156;8.220;2023-07-22T06:00:44;23.30;78.80
7658;DHT22;8462;53.156;8.220;2023-07-22T06:03:11;23.00;79.90
7658;DHT22;8462;53.156;8.220;2023-07-22T06:05:38;22.80;80.30
7658;DHT22;8462;53.156;8.220;2023-07-22T06:08:05;22.50;81.70
7658;DHT22;8462;53.156;8.220;2023-07-22T06:10:32;22.20;82.70
7658;DHT22;8462;53.156;8.220;2023-07-22T06:12:59;22.00;83.30
7658;DHT22;8462;53.156;8.220;2023-07-22T06:15:26;21.80;84.40
7658;DHT22;8462;53.156;8.220;2023-07-22T06:17:54;21.80;85.60
7658;DHT22;8462;53.156;8.220;2023-07-22T06:20:21;21.80;85.00
7658;DHT22;8462;53.156;8.220;2023-07-22T06:22:48;22.00;85.40
7658;DHT22;8462;53.156;8.220;2023-07-22T06:25:16;22.40;84.40
7658;DHT22;8462;53.156;8.220;2023-07-22T06:27:43;22.70;83.00
7658;DHT22;8462;53.156;8.220;2023-07-22T06:30:10;23.10;82.40
7658;DHT22;8462;53.156;8.220;2023-07-22T06:32:39;23.60;80.30
7658;DHT22;8462;53.156;8.220;2023-07-22T06:35:08;24.20;79.50
7658;DHT22;8462;53.156;8.220;2023-07-22T06:37:36;24.70;77.70
7658;DHT22;8462;53.156;8.220;2023-07-22T06:40:03;25.20;73.60
7658;DHT22;8462;53.156;8.220;2023-07-22T06:42:30;25.40;73.50
7658;DHT22;8462;53.156;8.220;2023-07-22T06:44:57;25.40;72.00
7658;DHT22;8462;53.156;8.220;2023-07-22T06:47:24;25.40;73.70
7658;DHT22;8462;53.156;8.220;2023-07-22T06:49:51;25.20;71.70
7658;DHT22;8462;53.156;8.220;2023-07-22T06:52:20;24.80;73.30
7658;DHT22;8462;53.156;8.220;2023-07-22T06:54:47;24.50;73.90
7658;DHT22;8462;53.156;8.220;2023-07-22T06:57:14;24.10;75.30
7658;DHT22;8462;53.156;8.220;2023-07-22T06:59:41;23.80;76.90
7658;DHT22;8462;53.156;8.220;2023-07-22T07:02:08;23.70;77.80
7658;DHT22;8462;53.156;8.220;2023-07-22T07:04:35;23.50;78.30
7658;DHT22;8462;53.156;8.220;2023-07-22T07:07:02;23.50;80.60
7658;DHT22;8462;53.156;8.220;2023-07-22T07:09:30;23.90;80.40
7658;DHT22;8462;53.156;8.220;2023-07-22T07:11:57;24.30;78.70
7658;DHT22;8462;53.156;8.220;2023-07-22T07:14:24;24.40;77.40
7658;DHT22;8462;53.156;8.220;2023-07-22T07:16:51;24.60;77.00
7658;DHT22;8462;53.156;8.220;2023-07-22T07:19:19;25.00;75.30
7658;DHT22;8462;53.156;8.220;2023-07-22T07:21:46;25.30;73.60
7658;DHT22;8462;53.156;8.220;2023-07-22T07:24:13;25.30;72.10
7658;DHT22;8462;53.156;8.220;2023-07-22T07:26:42;25.10;72.50
7658;DHT22;8462;53.156;8.220;2023-07-22T07:29:09;25.10;73.40
7658;DHT22;8462;53.156;8.220;2023-07-22T07:31:35;25.30;72.80
7658;DHT22;8462;53.156;8.220;2023-07-22T07:34:02;25.50;72.80
7658;DHT22;8462;53.156;8.220;2023-07-22T07:36:29;25.60;71.20
7658;DHT22;8462;53.156;8.220;2023-07-22T07:38:56;25.80;72.40
7658;DHT22;8462;53.156;8.220;2023-07-22T07:41:26;26.20;73.00
7658;DHT22;8462;53.156;8.220;2023-07-22T07:43:57;26.70;70.00
7658;DHT22;8462;53.156;8.220;2023-07-22T07:46:26;26.90;67.60
7658;DHT22;8462;53.156;8.220;2023-07-22T07:48:58;26.90;66.70
7658;DHT22;8462;53.156;8.220;2023-07-22T07:51:27;26.90;66.70
7658;DHT22;8462;53.156;8.220;2023-07-22T07:53:56;26.90;65.80
7658;DHT22;8462;53.156;8.220;2023-07-22T07:56:24;26.70;65.10
7658;DHT22;8462;53.156;8.220;2023-07-22T07:58:52;26.40;65.60
7658;DHT22;8462;53.156;8.220;2023-07-22T08:01:21;26.20;66.10
7658;DHT22;8462;53.156;8.220;2023-07-22T08:03:48;25.90;66.70
7658;DHT22;8462;53.156;8.220;2023-07-22T08:06:17;25.50;68.40
7658;DHT22;8462;53.156;8.220;2023-07-22T08:08:44;25.20;68.40
7658;DHT22;8462;53.156;8.220;2023-07-22T08:11:12;25.00;69.70
7658;DHT22;8462;53.156;8.220;2023-07-22T08:13:41;24.80;70.60
7658;DHT22;8462;53.156;8.220;2023-07-22T08:16:09;24.70;71.30
7658;DHT22;8462;53.156;8.220;2023-07-22T08:18:39;24.50;71.40
7658;DHT22;8462;53.156;8.220;2023-07-22T08:21:07;24.30;71.90
7658;DHT22;8462;53.156;8.220;2023-07-22T08:23:35;24.10;72.50
7658;DHT22;8462;53.156;8.220;2023-07-22T08:26:03;24.10;74.00
7658;DHT22;8462;53.156;8.220;2023-07-22T08:28:31;24.00;74.80
7658;DHT22;8462;53.156;8.220;2023-07-22T08:31:01;23.80;74.40
7658;DHT22;8462;53.156;8.220;2023-07-22T08:33:28;23.60;75.30
7658;DHT22;8462;53.156;8.220;2023-07-22T08:35:57;23.50;76.50
7658;DHT22;8462;53.156;8.220;2023-07-22T08:38:24;23.40;77.20
7658;DHT22;8462;53.156;8.220;2023-07-22T08:40:51;23.50;77.90
7658;DHT22;8462;53.156;8.220;2023-07-22T08:43:20;23.50;77.40
7658;DHT22;8462;53.156;8.220;2023-07-22T08:45:48;23.60;77.50
7658;DHT22;8462;53.156;8.220;2023-07-22T08:48:21;23.60;77.20
7658;DHT22;8462;53.156;8.220;2023-07-22T08:50:55;23.70;77.20
7658;DHT22;8462;53.156;8.220;2023-07-22T08:53:26;23.80;76.80
7658;DHT22;8462;53.156;8.220;2023-07-22T08:55:54;23.80;76.50
7658;DHT22;8462;53.156;8.220;2023-07-22T08:58:24;23.80;76.50
7658;DHT22;8462;53.156;8.220;2023-07-22T09:00:51;23.80;75.70
7658;DHT22;8462;53.156;8.220;2023-07-22T09:03:19;23.80;76.10
7658;DHT22;8462;53.156;8.220;2023-07-22T09:05:46;23.90;76.30
7658;DHT22;8462;53.156;8.220;2023-07-22T09:08:14;23.90;76.30
7658;DHT22;8462;53.156;8.220;2023-07-22T09:10:45;23.90;76.70
7658;DHT22;8462;53.156;8.220;2023-07-22T09:13:13;23.90;76.20
7658;DHT22;8462;53.156;8.220;2023-07-22T09:15:41;23.90;76.40
7658;DHT22;8462;53.156;8.220;2023-07-22T09:18:08;23.90;77.00
7658;DHT22;8462;53.156;8.220;2023-07-22T09:20:35;23.90;77.20
7658;DHT22;8462;53.156;8.220;2023-07-22T09:23:02;23.90;76.80
7658;DHT22;8462;53.156;8.220;2023-07-22T09:25:29;24.00;76.70
7658;DHT22;8462;53.156;8.220;2023-07-22T09:27:58;24.10;75.50
7658;DHT22;8462;53.156;8.220;2023-07-22T09:30:26;24.30;76.30
7658;DHT22;8462;53.156;8.220;2023-07-22T09:32:55;24.50;74.40
7658;DHT22;8462;53.156;8.220;2023-07-22T09:35:23;24.50;76.00
7658;DHT22;8462;53.156;8.220;2023-07-22T09:37:50;24.60;75.30
7658;DHT22;8462;53.156;8.220;2023-07-22T09:40:20;24.70;74.40
7658;DHT22;8462;53.156;8.220;2023-07-22T09:42:49;24.80;73.80
7658;DHT22;8462;53.156;8.220;2023-07-22T09:45:19;25.00;73.70
7658;DHT22;8462;53.156;8.220;2023-07-22T09:47:47;25.20;71.60
7658;DHT22;8462;53.156;8.220;2023-07-22T09:50:16;25.40;69.60
7658;DHT22;8462;53.156;8.220;2023-07-22T09:52:45;25.40;69.60
7658;DHT22;8462;53.156;8.220;2023-07-22T09:55:14;25.30;69.50
7658;DHT22;8462;53.156;8.220;2023-07-22T09:57:44;25.20;69.60
7658;DHT22;8462;53.156;8.220;2023-07-22T10:00:13;25.20;69.20
7658;DHT22;8462;53.156;8.220;2023-07-22T10:02:43;25.20;69.80
7658;DHT22;8462;53.156;8.220;2023-07-22T10:05:13;25.20;69.80
7658;DHT22;8462;53.156;8.220;2023-07-22T10:07:44;25.20;69.80
7658;DHT22;8462;53.156;8.220;2023-07-22T10:10:13;25.20;70.40
7658;DHT22;8462;53.156;8.220;2023-07-22T10:12:42;25.30;70.60
7658;DHT22;8462;53.156;8.220;2023-07-22T10:15:10;25.40;70.30
7658;DHT22;8462;53.156;8.220;2023-07-22T10:17:37;25.40;69.40
7658;DHT22;8462;53.156;8.220;2023-07-22T10:20:07;25.30;70.10
7658;DHT22;8462;53.156;8.220;2023-07-22T10:22:36;25.40;68.70
7658;DHT22;8462;53.156;8.220;2023-07-22T10:25:07;25.30;69.20
7658;DHT22;8462;53.156;8.220;2023-07-22T10:27:35;25.30;69.50
7658;DHT22;8462;53.156;8.220;2023-07-22T10:30:06;25.30;68.30
7658;DHT22;8462;53.156;8.220;2023-07-22T10:32:35;25.30;67.90
7658;DHT22;8462;53.156;8.220;2023-07-22T10:35:03;25.30;69.30
7658;DHT22;8462;53.156;8.220;2023-07-22T10:37:32;25.30;68.70
7658;DHT22;8462;53.156;8.220;2023-07-22T10:40:00;25.30;68.80
7658;DHT22;8462;53.156;8.220;2023-07-22T10:42:31;25.30;69.20
7658;DHT22;8462;53.156;8.220;2023-07-22T10:45:00;25.40;69.00
7658;DHT22;8462;53.156;8.220;2023-07-22T10:47:35;25.30;68.90
7658;DHT22;8462;53.156;8.220;2023-07-22T10:50:07;25.30;69.30
7658;DHT22;8462;53.156;8.220;2023-07-22T10:52:41;25.20;70.00
7658;DHT22;8462;53.156;8.220;2023-07-22T10:55:16;25.10;69.70
7658;DHT22;8462;53.156;8.220;2023-07-22T10:57:50;25.00;69.70
7658;DHT22;8462;53.156;8.220;2023-07-22T11:00:19;24.70;69.90
7658;DHT22;8462;53.156;8.220;2023-07-22T11:05:48;24.30;70.60
7658;DHT22;8462;53.156;8.220;2023-07-22T11:08:17;24.20;72.20
7658;DHT22;8462;53.156;8.220;2023-07-22T11:10:53;24.20;72.30
7658;DHT22;8462;53.156;8.220;2023-07-22T11:13:27;24.20;72.30
7658;DHT22;8462;53.156;8.220;2023-07-22T11:15:57;24.30;72.00
7658;DHT22;8462;53.156;8.220;2023-07-22T11:18:36;24.20;71.20
7658;DHT22;8462;53.156;8.220;2023-07-22T11:21:07;24.20;70.90
7658;DHT22;8462;53.156;8.220;2023-07-22T11:23:36;24.00;71.90
7658;DHT22;8462;53.156;8.220;2023-07-22T11:26:03;23.90;73.00
7658;DHT22;8462;53.156;8.220;2023-07-22T11:28:31;23.80;73.50
7658;DHT22;8462;53.156;8.220;2023-07-22T11:30:59;23.70;74.40
7658;DHT22;8462;53.156;8.220;2023-07-22T11:33:37;23.60;77.30
7658;DHT22;8462;53.156;8.220;2023-07-22T11:36:04;23.40;79.70
7658;DHT22;8462;53.156;8.220;2023-07-22T11:38:31;23.10;79.90
7658;DHT22;8462;53.156;8.220;2023-07-22T11:41:02;22.80;82.00
7658;DHT22;8462;53.156;8.220;2023-07-22T11:43:29;22.60;83.90
7658;DHT22;8462;53.156;8.220;2023-07-22T11:45:56;22.30;85.00
7658;DHT22;8462;53.156;8.220;2023-07-22T11:48:23;22.20;86.30
7658;DHT22;8462;53.156;8.220;2023-07-22T11:50:50;22.20;87.20
7658;DHT22;8462;53.156;8.220;2023-07-22T11:53:17;22.10;88.40
7658;DHT22;8462;53.156;8.220;2023-07-22T11:55:44;21.90;89.10
7658;DHT22;8462;53.156;8.220;2023-07-22T11:58:12;21.50;90.30
7658;DHT22;8462;53.156;8.220;2023-07-22T12:00:42;21.40;91.40
7658;DHT22;8462;53.156;8.220;2023-07-22T12:03:09;21.30;92.30
7658;DHT22;8462;53.156;8.220;2023-07-22T12:05:36;21.30;92.20
7658;DHT22;8462;53.156;8.220;2023-07-22T12:08:04;21.20;92.30
7658;DHT22;8462;53.156;8.220;2023-07-22T12:10:32;21.10;92.90
7658;DHT22;8462;53.156;8.220;2023-07-22T12:13:01;21.10;93.20
7658;DHT22;8462;53.156;8.220;2023-07-22T12:15:29;21.00;93.40
7658;DHT22;8462;53.156;8.220;2023-07-22T12:17:59;20.90;93.90
7658;DHT22;8462;53.156;8.220;2023-07-22T12:20:27;20.90;94.40
7658;DHT22;8462;53.156;8.220;2023-07-22T12:22:55;20.90;94.80
7658;DHT22;8462;53.156;8.220;2023-07-22T12:25:23;20.90;94.80
7658;DHT22;8462;53.156;8.220;2023-07-22T12:27:50;21.00;95.00
7658;DHT22;8462;53.156;8.220;2023-07-22T12:30:17;21.10;94.50
7658;DHT22;8462;53.156;8.220;2023-07-22T12:32:46;21.10;94.90
7658;DHT22;8462;53.156;8.220;2023-07-22T12:35:13;21.20;95.30
7658;DHT22;8462;53.156;8.220;2023-07-22T12:37:40;21.20;94.70
7658;DHT22;8462;53.156;8.220;2023-07-22T12:40:08;21.10;94.00
7658;DHT22;8462;53.156;8.220;2023-07-22T12:42:35;21.10;94.60
7658;DHT22;8462;53.156;8.220;2023-07-22T12:45:03;21.20;94.60
7658;DHT22;8462;53.156;8.220;2023-07-22T12:47:31;21.30;94.70
7658;DHT22;8462;53.156;8.220;2023-07-22T12:49:59;21.40;95.00
7658;DHT22;8462;53.156;8.220;2023-07-22T12:52:26;21.40;94.50
7658;DHT22;8462;53.156;8.220;2023-07-22T12:54:53;21.40;94.10
7658;DHT22;8462;53.156;8.220;2023-07-22T12:57:20;21.40;94.60
7658;DHT22;8462;53.156;8.220;2023-07-22T12:59:47;21.40;94.70
7658;DHT22;8462;53.156;8.220;2023-07-22T13:02:14;21.50;94.40
7658;DHT22;8462;53.156;8.220;2023-07-22T13:04:41;21.50;94.10
7658;DHT22;8462;53.156;8.220;2023-07-22T13:07:11;21.50;94.10
7658;DHT22;8462;53.156;8.220;2023-07-22T13:09:39;21.50;93.90
7658;DHT22;8462;53.156;8.220;2023-07-22T13:12:15;21.40;93.40
7658;DHT22;8462;53.156;8.220;2023-07-22T13:14:42;21.30;93.30
7658;DHT22;8462;53.156;8.220;2023-07-22T13:17:14;21.20;93.40
7658;DHT22;8462;53.156;8.220;2023-07-22T13:19:41;21.00;93.50
7658;DHT22;8462;53.156;8.220;2023-07-22T13:22:08;20.80;93.90
7658;DHT22;8462;53.156;8.220;2023-07-22T13:24:36;20.70;94.80
7658;DHT22;8462;53.156;8.220;2023-07-22T13:27:04;20.80;95.20
7658;DHT22;8462;53.156;8.220;2023-07-22T13:29:31;20.80;95.80
7658;DHT22;8462;53.156;8.220;2023-07-22T13:31:58;20.80;95.60
7658;DHT22;8462;53.156;8.220;2023-07-22T13:34:25;20.90;95.30
7658;DHT22;8462;53.156;8.220;2023-07-22T13:36:52;21.00;95.00
7658;DHT22;8462;53.156;8.220;2023-07-22T13:39:19;21.00;95.00
7658;DHT22;8462;53.156;8.220;2023-07-22T13:41:47;20.90;94.70
7658;DHT22;8462;53.156;8.220;2023-07-22T13:44:14;20.80;94.40
7658;DHT22;8462;53.156;8.220;2023-07-22T13:46:41;20.60;94.80
7658;DHT22;8462;53.156;8.220;2023-07-22T13:49:08;20.50;95.10
7658;DHT22;8462;53.156;8.220;2023-07-22T13:51:36;20.40;95.90
7658;DHT22;8462;53.156;8.220;2023-07-22T13:54:03;20.30;96.00
7658;DHT22;8462;53.156;8.220;2023-07-22T13:56:30;20.20;96.20
7658;DHT22;8462;53.156;8.220;2023-07-22T14:11:08;21.10;95.20
7658;DHT22;8462;53.156;8.220;2023-07-22T14:13:35;21.20;95.20
7658;DHT22;8462;53.156;8.220;2023-07-22T14:16:03;21.00;95.10
7658;DHT22;8462;53.156;8.220;2023-07-22T14:18:30;21.00;95.60
7658;DHT22;8462;53.156;8.220;2023-07-22T14:20:58;21.00;95.50
7658;DHT22;8462;53.156;8.220;2023-07-22T14:23:25;21.00;96.00
7658;DHT22;8462;53.156;8.220;2023-07-22T14:25:58;21.00;95.90
7658;DHT22;8462;53.156;8.220;2023-07-22T14:28:29;21.10;96.00
7658;DHT22;8462;53.156;8.220;2023-07-22T14:30:55;21.10;96.40
7658;DHT22;8462;53.156;8.220;2023-07-22T14:33:25;21.20;96.80
7658;DHT22;8462;53.156;8.220;2023-07-22T14:35:52;21.10;96.60
7658;DHT22;8462;53.156;8.220;2023-07-22T14:38:22;21.10;96.30
7658;DHT22;8462;53.156;8.220;2023-07-22T14:40:53;21.10;96.40
7658;DHT22;8462;53.156;8.220;2023-07-22T14:43:22;21.00;96.20
7658;DHT22;8462;53.156;8.220;2023-07-22T14:45:53;21.00;96.60
7658;DHT22;8462;53.156;8.220;2023-07-22T14:48:21;20.90;96.50
7658;DHT22;8462;53.156;8.220;2023-07-22T14:50:51;20.80;97.10
7658;DHT22;8462;53.156;8.220;2023-07-22T14:53:22;20.70;97.20
7658;DHT22;8462;53.156;8.220;2023-07-22T14:55:50;20.60;97.50
7658;DHT22;8462;53.156;8.220;2023-07-22T14:58:18;20.50;97.70
7658;DHT22;8462;53.156;8.220;2023-07-22T15:00:45;20.50;97.90
7658;DHT22;8462;53.156;8.220;2023-07-22T15:03:14;20.40;97.80
7658;DHT22;8462;53.156;8.220;2023-07-22T15:05:40;20.30;98.20
7658;DHT22;8462;53.156;8.220;2023-07-22T15:08:07;20.10;98.10
7658;DHT22;8462;53.156;8.220;2023-07-22T15:10:34;20.00;98.40
7658;DHT22;8462;53.156;8.220;2023-07-22T15:13:01;19.80;98.60
7658;DHT22;8462;53.156;8.220;2023-07-22T15:15:28;19.80;99.00
7658;DHT22;8462;53.156;8.220;2023-07-22T15:17:55;19.70;99.60
7658;DHT22;8462;53.156;8.220;2023-07-22T15:20:23;19.50;99.40
7658;DHT22;8462;53.156;8.220;2023-07-22T15:22:52;19.40;99.60
7658;DHT22;8462;53.156;8.220;2023-07-22T15:25:19;19.40;99.40
7658;DHT22;8462;53.156;8.220;2023-07-22T15:27:46;19.30;99.30
7658;DHT22;8462;53.156;8.220;2023-07-22T15:30:13;19.20;99.60
7658;DHT22;8462;53.156;8.220;2023-07-22T15:32:40;19.30;99.90
7658;DHT22;8462;53.156;8.220;2023-07-22T15:35:08;19.30;99.70
7658;DHT22;8462;53.156;8.220;2023-07-22T15:37:39;19.30;99.30
7658;DHT22;8462;53.156;8.220;2023-07-22T15:40:12;19.30;99.00
7658;DHT22;8462;53.156;8.220;2023-07-22T15:42:43;19.40;99.30
7658;DHT22;8462;53.156;8.220;2023-07-22T15:45:17;19.50;99.40
7658;DHT22;8462;53.156;8.220;2023-07-22T15:47:48;19.50;99.10
7658;DHT22;8462;53.156;8.220;2023-07-22T15:50:19;19.60;98.70
7658;DHT22;8462;53.156;8.220;2023-07-22T15:52:50;19.70;98.70
7658;DHT22;8462;53.156;8.220;2023-07-22T15:55:17;19.80;99.00
7658;DHT22;8462;53.156;8.220;2023-07-22T15:57:50;19.90;98.20
7658;DHT22;8462;53.156;8.220;2023-07-22T16:00:17;19.90;97.80
7658;DHT22;8462;53.156;8.220;2023-07-22T16:02:48;19.90;98.10
7658;DHT22;8462;53.156;8.220;2023-07-22T16:05:20;19.80;97.80
7658;DHT22;8462;53.156;8.220;2023-07-22T16:07:49;19.80;98.30
7658;DHT22;8462;53.156;8.220;2023-07-22T16:10:17;19.80;98.10
7658;DHT22;8462;53.156;8.220;2023-07-22T16:12:46;19.80;98.00
7658;DHT22;8462;53.156;8.220;2023-07-22T16:15:16;19.80;97.90
7658;DHT22;8462;53.156;8.220;2023-07-22T16:17:44;19.80;98.30
7658;DHT22;8462;53.156;8.220;2023-07-22T16:20:12;19.90;98.30
7658;DHT22;8462;53.156;8.220;2023-07-22T16:22:39;19.90;98.20